SDM210 UMMS-ULLI
Flight info
| Callsign | SDM210 |
|---|---|
| Flight time | N/A |
| Altitude | 37000 |
| Route | AGNEF2G AGNEF N743 DITBI T782 KOLET KOLET1V |
| Aircraft | B742/H-VGDW/C |
Departure
| Time | N/A |
|---|---|
| Airport | Minsk National Airport (UMMS) |
Arrival
| Time | 2026-05-06 15:36 |
|---|---|
| Airport | Pulkovo Airport (ULLI) |
| Time | Latitude | Longitude | Altitude | Speed | Heading |
|---|---|---|---|---|---|
| 2026-05-06 15:15 | 58.66770 | 29.16823 | 32480 ft | 450 kts | 353° |
| 2026-05-06 15:15 | 58.69895 | 29.16995 | 31965 ft | 446 kts | 353° |
| 2026-05-06 15:15 | 58.72977 | 29.17166 | 31456 ft | 442 kts | 352° |
| 2026-05-06 15:16 | 58.76029 | 29.17334 | 30942 ft | 438 kts | 352° |
| 2026-05-06 15:16 | 58.79064 | 29.17501 | 30422 ft | 436 kts | 352° |
| 2026-05-06 15:16 | 58.82075 | 29.17670 | 29901 ft | 433 kts | 352° |
| 2026-05-06 15:16 | 58.85049 | 29.17836 | 29379 ft | 430 kts | 352° |
| 2026-05-06 15:17 | 58.88006 | 29.18001 | 28852 ft | 427 kts | 352° |
| 2026-05-06 15:17 | 58.91929 | 29.18220 | 28147 ft | 422 kts | 352° |
| 2026-05-06 15:17 | 58.93898 | 29.18331 | 27799 ft | 420 kts | 352° |
| 2026-05-06 15:17 | 58.96800 | 29.18845 | 27273 ft | 430 kts | 2° |
| 2026-05-06 15:18 | 58.99659 | 29.20647 | 26753 ft | 444 kts | 17° |
| 2026-05-06 15:18 | 59.02403 | 29.23893 | 26212 ft | 454 kts | 32° |
| 2026-05-06 15:18 | 59.04711 | 29.28298 | 25682 ft | 460 kts | 46° |
| 2026-05-06 15:18 | 59.06667 | 29.33253 | 25167 ft | 460 kts | 50° |
| 2026-05-06 15:19 | 59.08566 | 29.38278 | 24656 ft | 457 kts | 49° |
| 2026-05-06 15:19 | 59.10514 | 29.43218 | 24128 ft | 453 kts | 47° |
| 2026-05-06 15:19 | 59.12429 | 29.47872 | 23602 ft | 440 kts | 46° |
| 2026-05-06 15:19 | 59.14347 | 29.52423 | 22958 ft | 432 kts | 45° |
| 2026-05-06 15:20 | 59.16265 | 29.56933 | 22310 ft | 424 kts | 45° |
| 2026-05-06 15:20 | 59.18125 | 29.61320 | 21660 ft | 417 kts | 45° |
| 2026-05-06 15:20 | 59.19960 | 29.65666 | 21014 ft | 410 kts | 46° |
| 2026-05-06 15:20 | 59.21743 | 29.69976 | 20369 ft | 403 kts | 47° |
| 2026-05-06 15:21 | 59.23480 | 29.74197 | 19707 ft | 397 kts | 47° |
| 2026-05-06 15:21 | 59.25200 | 29.78343 | 19078 ft | 391 kts | 46° |
| 2026-05-06 15:21 | 59.26914 | 29.82455 | 18422 ft | 385 kts | 46° |
| 2026-05-06 15:21 | 59.28594 | 29.86475 | 17770 ft | 379 kts | 46° |
| 2026-05-06 15:22 | 59.30250 | 29.90451 | 17118 ft | 374 kts | 46° |
| 2026-05-06 15:22 | 59.31872 | 29.94346 | 16479 ft | 369 kts | 46° |
| 2026-05-06 15:22 | 59.33472 | 29.98201 | 15833 ft | 364 kts | 46° |
| 2026-05-06 15:22 | 59.35070 | 30.02054 | 15186 ft | 359 kts | 46° |
| 2026-05-06 15:23 | 59.36623 | 30.05811 | 14525 ft | 355 kts | 46° |
| 2026-05-06 15:23 | 59.38153 | 30.09515 | 13879 ft | 350 kts | 46° |
| 2026-05-06 15:23 | 59.39661 | 30.13168 | 13249 ft | 346 kts | 46° |
| 2026-05-06 15:23 | 59.41167 | 30.16823 | 12589 ft | 341 kts | 47° |
| 2026-05-06 15:24 | 59.42646 | 30.20419 | 11946 ft | 336 kts | 47° |
| 2026-05-06 15:24 | 59.44096 | 30.23951 | 11293 ft | 332 kts | 47° |
| 2026-05-06 15:24 | 59.45515 | 30.27412 | 10644 ft | 327 kts | 47° |
| 2026-05-06 15:24 | 59.46908 | 30.30821 | 10064 ft | 319 kts | 47° |
| 2026-05-06 15:25 | 59.48277 | 30.34172 | 9532 ft | 310 kts | 48° |
| 2026-05-06 15:25 | 59.49619 | 30.37462 | 8999 ft | 302 kts | 48° |
| 2026-05-06 15:25 | 59.50913 | 30.40637 | 8459 ft | 296 kts | 48° |
| 2026-05-06 15:25 | 59.52176 | 30.43742 | 7918 ft | 289 kts | 49° |
| 2026-05-06 15:26 | 59.53469 | 30.46656 | 7384 ft | 280 kts | 39° |
| 2026-05-06 15:26 | 59.54949 | 30.49093 | 6869 ft | 274 kts | 36° |
| 2026-05-06 15:26 | 59.56444 | 30.51438 | 6325 ft | 279 kts | 37° |
| 2026-05-06 15:26 | 59.57976 | 30.53678 | 5952 ft | 274 kts | 24° |
| 2026-05-06 15:27 | 59.59797 | 30.54414 | 5610 ft | 267 kts | 353° |
| 2026-05-06 15:27 | 59.61493 | 30.53194 | 5333 ft | 261 kts | 322° |
| 2026-05-06 15:27 | 59.62587 | 30.50412 | 5061 ft | 257 kts | 291° |
| 2026-05-06 15:27 | 59.62749 | 30.46965 | 4775 ft | 256 kts | 258° |
| 2026-05-06 15:28 | 59.61952 | 30.43848 | 4441 ft | 257 kts | 227° |
| 2026-05-06 15:28 | 59.60440 | 30.42020 | 4095 ft | 259 kts | 194° |
| 2026-05-06 15:28 | 59.58679 | 30.42065 | 3770 ft | 259 kts | 161° |
| 2026-05-06 15:28 | 59.57197 | 30.43953 | 3438 ft | 257 kts | 128° |
| 2026-05-06 15:29 | 59.56469 | 30.47103 | 3101 ft | 253 kts | 94° |
| 2026-05-06 15:29 | 59.56726 | 30.50460 | 2762 ft | 249 kts | 61° |
| 2026-05-06 15:29 | 59.57758 | 30.53094 | 2555 ft | 243 kts | 42° |
| 2026-05-06 15:29 | 59.59003 | 30.55371 | 2500 ft | 243 kts | 39° |
| 2026-05-06 15:30 | 59.60278 | 30.57515 | 2490 ft | 243 kts | 37° |
| 2026-05-06 15:30 | 59.61591 | 30.59666 | 2485 ft | 243 kts | 37° |
| 2026-05-06 15:30 | 59.62891 | 30.61774 | 2484 ft | 244 kts | 37° |
| 2026-05-06 15:30 | 59.64204 | 30.63899 | 2483 ft | 243 kts | 37° |
| 2026-05-06 15:31 | 59.65568 | 30.65813 | 2461 ft | 241 kts | 21° |
| 2026-05-06 15:31 | 59.67213 | 30.66181 | 2464 ft | 239 kts | 346° |
| 2026-05-06 15:31 | 59.68708 | 30.64853 | 2468 ft | 237 kts | 328° |
| 2026-05-06 15:32 | 59.71417 | 30.61285 | 2470 ft | 237 kts | 325° |
| 2026-05-06 15:32 | 59.72637 | 30.59601 | 2464 ft | 238 kts | 325° |
| 2026-05-06 15:32 | 59.73998 | 30.57695 | 2463 ft | 235 kts | 322° |
| 2026-05-06 15:32 | 59.74937 | 30.55266 | 2461 ft | 219 kts | 288° |
| 2026-05-06 15:33 | 59.75355 | 30.52485 | 2472 ft | 203 kts | 289° |
| 2026-05-06 15:33 | 59.75771 | 30.49869 | 2349 ft | 193 kts | 289° |
| 2026-05-06 15:33 | 59.76154 | 30.47392 | 2146 ft | 184 kts | 289° |
| 2026-05-06 15:33 | 59.76516 | 30.45014 | 1850 ft | 176 kts | 289° |
| 2026-05-06 15:34 | 59.76854 | 30.42777 | 1642 ft | 163 kts | 289° |
| 2026-05-06 15:34 | 59.77166 | 30.40701 | 1430 ft | 152 kts | 290° |
| 2026-05-06 15:34 | 59.77449 | 30.38823 | 1262 ft | 139 kts | 289° |
| 2026-05-06 15:34 | 59.77721 | 30.37011 | 1025 ft | 133 kts | 289° |
| 2026-05-06 15:35 | 59.77976 | 30.35268 | 830 ft | 133 kts | 289° |
| 2026-05-06 15:35 | 59.78234 | 30.33518 | 664 ft | 132 kts | 289° |
| 2026-05-06 15:35 | 59.78500 | 30.31806 | 486 ft | 131 kts | 288° |
| 2026-05-06 15:35 | 59.78760 | 30.30060 | 312 ft | 131 kts | 290° |
| 2026-05-06 15:36 | 59.79028 | 30.28314 | 139 ft | 134 kts | 290° |
| 2026-05-06 15:36 | 59.79283 | 30.26639 | 90 ft | 111 kts | 287° |
| 2026-05-06 15:36 | 59.79448 | 30.25523 | 87 ft | 32 kts | 286° |
| 2026-05-06 15:36 | 59.79467 | 30.25441 | 87 ft | 2 kts | 330° |
| 2026-05-06 15:37 | 59.79488 | 30.25487 | 86 ft | 10 kts | 75° |